Time;durP1;ratioP1;P1;durP2;ratioP2;P2;SDS_P1;SDS_P2;PMS_P1;PMS_P2;Temp;Humidity;BMP_temperature;BMP_pressure;BME280_temperature;BME280_humidity;BME280_pressure;Samples;Min_cycle;Max_cycle;Signal;HPM_P1;HPM_P2
2021/06/10 00:01:45;;;;;;;2.45;2.25;;;;;;;;;;5011128;28;20476;-69
2021/06/10 00:04:11;;;;;;;2.40;2.20;;;;;;;;;;5011381;28;20120;-69
2021/06/10 00:06:37;;;;;;;2.90;2.70;;;;;;;;;;5012743;28;20033;-69
2021/06/10 00:09:04;;;;;;;4.20;2.20;;;;;;;;;;5010425;28;20049;-69
2021/06/10 00:11:30;;;;;;;3.13;2.83;;;;;;;;;;5008544;28;20056;-68
2021/06/10 00:13:56;;;;;;;2.90;2.70;;;;;;;;;;5009693;28;20064;-68
2021/06/10 00:16:22;;;;;;;3.75;2.42;;;;;;;;;;5009938;28;20033;-68
2021/06/10 00:18:49;;;;;;;2.50;2.30;;;;;;;;;;5010351;28;20464;-68
2021/06/10 00:21:15;;;;;;;4.88;2.53;;;;;;;;;;5018057;28;20036;-69
2021/06/10 00:23:41;;;;;;;3.05;2.75;;;;;;;;;;5012077;28;20508;-67
2021/06/10 00:26:08;;;;;;;2.60;2.40;;;;;;;;;;5010753;28;20048;-68
2021/06/10 00:28:34;;;;;;;2.85;2.40;;;;;;;;;;5012281;28;20038;-68
2021/06/10 00:31:03;;;;;;;2.55;2.25;;;;;;;;;;5010663;28;20079;-69
2021/06/10 00:33:29;;;;;;;5.35;2.55;;;;;;;;;;5012226;28;20038;-68
2021/06/10 00:35:55;;;;;;;2.30;2.10;;;;;;;;;;5010181;28;20543;-68
2021/06/10 00:38:21;;;;;;;2.22;2.10;;;;;;;;;;5007710;28;20045;-68
2021/06/10 00:40:47;;;;;;;2.47;2.28;;;;;;;;;;5008628;28;20025;-69
2021/06/10 00:43:14;;;;;;;2.25;2.05;;;;;;;;;;5014549;28;20488;-68
2021/06/10 00:45:40;;;;;;;2.78;2.45;;;;;;;;;;5012112;28;20057;-68
2021/06/10 00:48:06;;;;;;;2.80;2.28;;;;;;;;;;5010998;28;20399;-69
2021/06/10 00:50:36;;;;;;;2.30;2.10;;;;;;;;;;5009613;28;20030;-68
2021/06/10 00:53:02;;;;;;;1.95;1.75;;;;;;;;;;5010063;28;20084;-68
2021/06/10 00:55:29;;;;;;;2.55;2.35;;;;;;;;;;5011950;28;20029;-68
2021/06/10 00:57:55;;;;;;;2.58;2.38;;;;;;;;;;5011842;28;20372;-68
2021/06/10 01:00:21;;;;;;;3.03;2.60;;;;;;;;;;5007980;28;20056;-68
2021/06/10 01:02:48;;;;;;;4.10;2.30;;;;;;;;;;5011837;28;20031;-68
2021/06/10 01:05:14;;;;;;;3.33;2.30;;;;;;;;;;5010975;28;20043;-68
2021/06/10 01:07:43;;;;;;;2.10;1.90;;;;;;;;;;5010354;28;20352;-68
2021/06/10 01:10:10;;;;;;;2.38;2.17;;;;;;;;;;5011524;28;20026;-69
2021/06/10 01:12:41;;;;;;;2.67;2.30;;;;;;;;;;5011792;28;20036;-69
2021/06/10 01:15:07;;;;;;;2.60;2.40;;;;;;;;;;5010675;28;20049;-68
2021/06/10 01:17:40;;;;;;;2.78;2.47;;;;;;;;;;5008148;28;20037;-69
2021/06/10 01:20:06;;;;;;;2.40;2.10;;;;;;;;;;5008563;28;20485;-69
2021/06/10 01:22:41;;;;;;;4.03;2.50;;;;;;;;;;5009936;28;20656;-69
2021/06/10 01:25:14;;;;;;;2.47;2.28;;;;;;;;;;5012023;28;20034;-69
2021/06/10 01:27:41;;;;;;;3.75;2.38;;;;;;;;;;5012721;28;20036;-69
2021/06/10 01:30:10;;;;;;;2.72;2.53;;;;;;;;;;5007728;28;20093;-69
2021/06/10 01:32:39;;;;;;;2.95;2.08;;;;;;;;;;5012491;28;20021;-69
2021/06/10 01:35:06;;;;;;;3.92;2.03;;;;;;;;;;5009905;28;20658;-69
2021/06/10 01:37:32;;;;;;;2.50;2.28;;;;;;;;;;5011555;28;20041;-68
2021/06/10 01:40:00;;;;;;;2.45;2.25;;;;;;;;;;5009974;28;20558;-68
2021/06/10 01:42:26;;;;;;;2.10;1.90;;;;;;;;;;5015561;28;20037;-69
2021/06/10 01:44:52;;;;;;;2.25;2.08;;;;;;;;;;5013519;28;20037;-68
2021/06/10 01:47:20;;;;;;;5.00;2.08;;;;;;;;;;5012192;28;20052;-68
2021/06/10 01:49:46;;;;;;;2.72;2.38;;;;;;;;;;5011951;28;20033;-68
2021/06/10 01:52:13;;;;;;;3.00;2.30;;;;;;;;;;5013304;28;20076;-69
2021/06/10 01:54:39;;;;;;;4.80;2.22;;;;;;;;;;5013596;28;20034;-68
2021/06/10 01:57:06;;;;;;;3.63;2.35;;;;;;;;;;5016328;28;20030;-68
2021/06/10 01:59:33;;;;;;;2.17;2.00;;;;;;;;;;5010269;28;20046;-69
2021/06/10 02:02:01;;;;;;;3.67;2.33;;;;;;;;;;5012947;28;20036;-68
2021/06/10 02:04:27;;;;;;;2.20;2.00;;;;;;;;;;5011441;28;20041;-67
2021/06/10 02:06:55;;;;;;;2.33;2.13;;;;;;;;;;5013098;28;20539;-67
2021/06/10 02:09:21;;;;;;;3.63;2.15;;;;;;;;;;5012838;28;20061;-69
2021/06/10 02:11:48;;;;;;;2.45;2.03;;;;;;;;;;5010004;28;20498;-69
2021/06/10 02:14:16;;;;;;;2.08;1.88;;;;;;;;;;5012156;28;20034;-69
2021/06/10 02:16:42;;;;;;;3.42;2.20;;;;;;;;;;5012723;28;20552;-68
2021/06/10 02:19:09;;;;;;;2.22;2.03;;;;;;;;;;5009781;28;20045;-69
2021/06/10 02:21:35;;;;;;;3.13;2.40;;;;;;;;;;5013234;28;20017;-69
2021/06/10 02:24:01;;;;;;;4.68;2.13;;;;;;;;;;5011965;28;20152;-67
2021/06/10 02:26:27;;;;;;;2.17;1.85;;;;;;;;;;5016898;28;20033;-68
2021/06/10 02:28:53;;;;;;;4.93;2.00;;;;;;;;;;5012901;28;20057;-68
2021/06/10 02:31:20;;;;;;;2.10;1.90;;;;;;;;;;5013419;28;20192;-68
2021/06/10 02:33:46;;;;;;;2.65;2.22;;;;;;;;;;5011739;28;20425;-68
2021/06/10 02:36:17;;;;;;;2.28;1.70;;;;;;;;;;5011288;28;20104;-68
2021/06/10 02:39:02;;;;;;;2.03;1.83;;;;;;;;;;5012493;28;20042;-67
2021/06/10 02:41:30;;;;;;;1.58;1.48;;;;;;;;;;5012796;28;20430;-68
2021/06/10 02:43:58;;;;;;;2.40;2.00;;;;;;;;;;5010689;28;20136;-68
2021/06/10 02:46:24;;;;;;;2.25;2.05;;;;;;;;;;5015498;28;20034;-68
2021/06/10 02:48:52;;;;;;;2.05;1.80;;;;;;;;;;5011690;28;20026;-69
2021/06/10 02:51:19;;;;;;;1.80;1.65;;;;;;;;;;5011054;28;20026;-69
2021/06/10 02:53:46;;;;;;;2.08;1.80;;;;;;;;;;5009777;28;20029;-69
2021/06/10 02:56:12;;;;;;;2.28;1.67;;;;;;;;;;5009274;28;20052;-69
2021/06/10 02:58:39;;;;;;;4.65;1.80;;;;;;;;;;5011396;28;20037;-69
2021/06/10 03:01:06;;;;;;;2.92;1.23;;;;;;;;;;5015241;28;20404;-69
2021/06/10 03:03:33;;;;;;;1.90;1.63;;;;;;;;;;5015538;28;20115;-68
2021/06/10 03:06:00;;;;;;;1.55;1.38;;;;;;;;;;5015575;28;20026;-68
2021/06/10 03:08:27;;;;;;;2.35;1.75;;;;;;;;;;5011963;28;20399;-67
2021/06/10 03:10:56;;;;;;;3.22;2.10;;;;;;;;;;5010126;28;20033;-67
2021/06/10 03:13:22;;;;;;;2.67;1.50;;;;;;;;;;5011301;28;20042;-67
2021/06/10 03:15:49;;;;;;;5.00;2.38;;;;;;;;;;5010392;28;20040;-68
2021/06/10 03:18:15;;;;;;;2.65;1.65;;;;;;;;;;5011572;28;20048;-68
2021/06/10 03:20:42;;;;;;;4.63;1.73;;;;;;;;;;5011023;28;20037;-68
2021/06/10 03:23:08;;;;;;;2.35;1.60;;;;;;;;;;5008083;28;20085;-68
2021/06/10 03:25:35;;;;;;;1.88;1.40;;;;;;;;;;5009297;28;20022;-68
2021/06/10 03:28:02;;;;;;;3.53;1.75;;;;;;;;;;5010642;28;20436;-67
2021/06/10 03:30:28;;;;;;;1.90;1.70;;;;;;;;;;5008852;28;20025;-67
2021/06/10 03:32:54;;;;;;;1.50;1.40;;;;;;;;;;5010026;28;20630;-68
2021/06/10 03:35:21;;;;;;;1.83;1.60;;;;;;;;;;5011709;28;20030;-67
2021/06/10 03:37:47;;;;;;;2.22;1.42;;;;;;;;;;5010351;28;20049;-68
2021/06/10 03:40:14;;;;;;;2.83;1.60;;;;;;;;;;5009169;28;20044;-67
2021/06/10 03:42:40;;;;;;;2.38;1.50;;;;;;;;;;5014205;28;20029;-68
2021/06/10 03:45:09;;;;;;;5.18;1.70;;;;;;;;;;5010417;28;20104;-67
2021/06/10 03:47:36;;;;;;;1.55;1.30;;;;;;;;;;5013217;28;20063;-68
2021/06/10 03:50:03;;;;;;;2.65;1.30;;;;;;;;;;5009830;28;20048;-68
2021/06/10 03:52:29;;;;;;;2.00;1.90;;;;;;;;;;5008712;28;20044;-68
2021/06/10 03:54:58;;;;;;;1.55;1.27;;;;;;;;;;5007102;28;20657;-68
2021/06/10 03:57:24;;;;;;;3.30;1.40;;;;;;;;;;5009081;28;20029;-68
2021/06/10 03:59:50;;;;;;;2.70;1.33;;;;;;;;;;5011192;28;20026;-68
2021/06/10 04:02:16;;;;;;;3.80;1.58;;;;;;;;;;5014811;28;20075;-68
2021/06/10 04:04:43;;;;;;;1.40;1.30;;;;;;;;;;5015150;28;20105;-68
2021/06/10 04:07:09;;;;;;;2.53;1.27;;;;;;;;;;5011716;28;20503;-68
2021/06/10 04:09:38;;;;;;;1.70;1.20;;;;;;;;;;5008871;28;20042;-68
2021/06/10 04:12:04;;;;;;;2.20;1.35;;;;;;;;;;5011158;28;20092;-68
2021/06/10 04:14:30;;;;;;;5.85;1.95;;;;;;;;;;5012067;28;20033;-68
2021/06/10 04:16:56;;;;;;;2.08;1.48;;;;;;;;;;5009743;28;20567;-68
2021/06/10 04:19:22;;;;;;;4.93;1.70;;;;;;;;;;5010524;28;20050;-68
2021/06/10 04:21:48;;;;;;;2.03;1.30;;;;;;;;;;5010624;28;20022;-68
2021/06/10 04:24:14;;;;;;;4.10;1.80;;;;;;;;;;5009004;28;20040;-68
2021/06/10 04:26:41;;;;;;;3.17;1.50;;;;;;;;;;5013236;28;20148;-67
2021/06/10 04:29:07;;;;;;;2.75;1.60;;;;;;;;;;5010305;28;20127;-67
2021/06/10 04:31:33;;;;;;;1.48;1.10;;;;;;;;;;5014022;28;20479;-68
2021/06/10 04:33:59;;;;;;;8.32;1.65;;;;;;;;;;5015229;28;20029;-68
2021/06/10 04:36:25;;;;;;;1.88;1.40;;;;;;;;;;5011394;28;20030;-68
2021/06/10 04:38:51;;;;;;;2.25;1.33;;;;;;;;;;5010001;28;20038;-68
2021/06/10 04:41:18;;;;;;;3.25;1.52;;;;;;;;;;5008587;28;20443;-68
2021/06/10 04:43:44;;;;;;;3.42;1.73;;;;;;;;;;5012103;28;20068;-68
2021/06/10 04:46:10;;;;;;;1.15;1.00;;;;;;;;;;5015089;28;20028;-67
2021/06/10 04:48:37;;;;;;;3.22;1.30;;;;;;;;;;5009470;28;20527;-68
2021/06/10 04:51:04;;;;;;;1.48;1.38;;;;;;;;;;5010593;28;20030;-74
2021/06/10 04:53:30;;;;;;;4.95;1.52;;;;;;;;;;5007632;28;20060;-70
2021/06/10 04:55:57;;;;;;;3.00;1.38;;;;;;;;;;5008232;28;20022;-68
2021/06/10 04:58:23;;;;;;;1.88;1.25;;;;;;;;;;5009721;28;20045;-67
2021/06/10 05:00:49;;;;;;;5.32;1.35;;;;;;;;;;5010947;28;20021;-66
2021/06/10 05:03:21;;;;;;;6.55;1.48;;;;;;;;;;5009941;28;20040;-66
2021/06/10 05:05:47;;;;;;;3.47;2.03;;;;;;;;;;5005992;28;20492;-66
2021/06/10 05:08:13;;;;;;;5.00;1.45;;;;;;;;;;5009738;28;20532;-68
2021/06/10 05:10:39;;;;;;;7.00;1.45;;;;;;;;;;5011458;28;20117;-68
2021/06/10 05:13:05;;;;;;;8.20;1.60;;;;;;;;;;5011280;28;20033;-71
2021/06/10 05:15:31;;;;;;;9.18;1.98;;;;;;;;;;5010053;28;20033;-68
2021/06/10 05:17:57;;;;;;;9.48;2.08;;;;;;;;;;5012300;28;20482;-68
2021/06/10 05:20:23;;;;;;;6.13;1.45;;;;;;;;;;5011011;28;20030;-81
2021/06/10 05:22:49;;;;;;;12.15;3.05;;;;;;;;;;5011278;28;20072;-68
2021/06/10 05:25:15;;;;;;;6.70;1.67;;;;;;;;;;5011197;28;20045;-67
2021/06/10 05:27:42;;;;;;;13.25;1.65;;;;;;;;;;5009962;28;20071;-69
2021/06/10 05:30:09;;;;;;;5.35;1.70;;;;;;;;;;5010716;28;20064;-68
2021/06/10 05:32:35;;;;;;;8.32;2.30;;;;;;;;;;5015809;28;20040;-69
2021/06/10 05:35:01;;;;;;;8.63;2.97;;;;;;;;;;5011120;28;20029;-77
2021/06/10 05:37:27;;;;;;;11.23;1.90;;;;;;;;;;5012574;28;20399;-74
2021/06/10 05:39:54;;;;;;;11.95;2.35;;;;;;;;;;5013955;28;20037;-72
2021/06/10 05:42:20;;;;;;;8.95;2.15;;;;;;;;;;5015051;28;20059;-74
2021/06/10 05:44:46;;;;;;;8.63;2.25;;;;;;;;;;5012376;28;20044;-69
2021/06/10 05:47:12;;;;;;;9.00;2.08;;;;;;;;;;5017237;28;20060;-70
2021/06/10 05:49:38;;;;;;;7.90;1.70;;;;;;;;;;5014696;28;20505;-69
2021/06/10 05:52:05;;;;;;;5.45;2.10;;;;;;;;;;5014375;28;20030;-63
2021/06/10 05:54:31;;;;;;;7.40;1.70;;;;;;;;;;5009859;28;20250;-63
2021/06/10 05:56:58;;;;;;;6.03;2.08;;;;;;;;;;5009661;28;20033;-63
2021/06/10 05:59:24;;;;;;;6.28;1.80;;;;;;;;;;5014066;28;20045;-62
2021/06/10 06:01:50;;;;;;;4.20;1.92;;;;;;;;;;5014858;28;20195;-63
2021/06/10 06:04:16;;;;;;;7.95;2.05;;;;;;;;;;5015086;28;20164;-63
2021/06/10 06:06:44;;;;;;;4.45;1.45;;;;;;;;;;5013556;28;20026;-63
2021/06/10 06:09:10;;;;;;;4.15;1.88;;;;;;;;;;5013701;28;20077;-63
2021/06/10 06:11:36;;;;;;;5.20;1.60;;;;;;;;;;5014706;28;20032;-63
2021/06/10 06:16:32;;;;;;;5.10;1.92;;;;;;;;;;5015754;28;20471;-63
2021/06/10 06:19:01;;;;;;;6.72;1.90;;;;;;;;;;5014550;28;20053;-63
2021/06/10 06:21:27;;;;;;;3.30;1.55;;;;;;;;;;5014786;28;20034;-63
2021/06/10 06:23:56;;;;;;;4.07;1.73;;;;;;;;;;5013123;28;20116;-63
2021/06/10 06:26:22;;;;;;;3.63;2.15;;;;;;;;;;5015119;28;20029;-62
2021/06/10 06:28:49;;;;;;;2.50;1.33;;;;;;;;;;5015783;28;20076;-63
2021/06/10 06:31:15;;;;;;;3.15;1.30;;;;;;;;;;5017661;28;20503;-62
2021/06/10 06:33:41;;;;;;;2.15;1.77;;;;;;;;;;5017465;28;20040;-62
2021/06/10 06:36:07;;;;;;;2.65;1.30;;;;;;;;;;5017894;28;20036;-62
2021/06/10 06:38:33;;;;;;;2.25;1.35;;;;;;;;;;5017977;28;20095;-62
2021/06/10 06:40:59;;;;;;;4.82;1.30;;;;;;;;;;5017649;28;20025;-63
2021/06/10 06:43:30;;;;;;;6.10;1.50;;;;;;;;;;5016470;28;20148;-62
2021/06/10 06:45:56;;;;;;;1.55;1.30;;;;;;;;;;5016973;28;20030;-63
2021/06/10 06:48:22;;;;;;;6.07;1.38;;;;;;;;;;5018516;28;20029;-63
2021/06/10 06:50:48;;;;;;;1.75;1.10;;;;;;;;;;5018557;28;20057;-63
2021/06/10 06:53:14;;;;;;;2.63;1.38;;;;;;;;;;5016561;28;20033;-62
2021/06/10 06:55:40;;;;;;;2.95;1.67;;;;;;;;;;5018135;28;20091;-63
2021/06/10 06:58:06;;;;;;;5.10;2.20;;;;;;;;;;5019296;28;20073;-63
2021/06/10 07:00:32;;;;;;;2.95;1.23;;;;;;;;;;5017321;28;20130;-63
2021/06/10 07:02:59;;;;;;;3.22;1.70;;;;;;;;;;5018269;28;20200;-63
2021/06/10 07:05:25;;;;;;;4.13;2.22;;;;;;;;;;5016418;28;20412;-63
2021/06/10 07:07:51;;;;;;;4.13;1.70;;;;;;;;;;5018276;28;20077;-63
2021/06/10 07:10:17;;;;;;;2.13;1.25;;;;;;;;;;5015730;28;20037;-63
2021/06/10 07:12:43;;;;;;;2.50;1.30;;;;;;;;;;5016735;28;20130;-63
2021/06/10 07:15:10;;;;;;;1.00;0.98;;;;;;;;;;5017905;28;20032;-63
2021/06/10 07:17:36;;;;;;;2.58;1.27;;;;;;;;;;5016135;28;20401;-63
2021/06/10 07:20:03;;;;;;;2.75;1.20;;;;;;;;;;5016275;28;20433;-63
2021/06/10 07:22:32;;;;;;;1.98;1.10;;;;;;;;;;5016959;28;20033;-64
2021/06/10 07:24:59;;;;;;;1.70;1.42;;;;;;;;;;5015809;28;20044;-63
2021/06/10 07:27:25;;;;;;;1.42;1.00;;;;;;;;;;5017369;28;20026;-62
2021/06/10 07:29:53;;;;;;;3.63;1.20;;;;;;;;;;5015984;28;20037;-63
2021/06/10 07:32:19;;;;;;;1.27;1.02;;;;;;;;;;5017720;28;20065;-63
2021/06/10 07:34:45;;;;;;;2.55;1.15;;;;;;;;;;5018723;28;20496;-63
2021/06/10 07:37:12;;;;;;;1.45;0.88;;;;;;;;;;5018605;28;20097;-63
2021/06/10 07:39:39;;;;;;;5.47;1.25;;;;;;;;;;5017431;28;20053;-63
2021/06/10 07:42:05;;;;;;;1.48;1.17;;;;;;;;;;5012974;28;20067;-63
2021/06/10 07:44:31;;;;;;;2.17;1.10;;;;;;;;;;5016424;28;20022;-63
2021/06/10 07:46:57;;;;;;;1.13;0.95;;;;;;;;;;5016241;28;20109;-63
2021/06/10 07:49:24;;;;;;;1.63;1.42;;;;;;;;;;5016340;28;20560;-63
2021/06/10 07:51:50;;;;;;;3.70;1.10;;;;;;;;;;5016499;28;20076;-63
2021/06/10 07:54:16;;;;;;;2.08;1.10;;;;;;;;;;5016334;28;20030;-63
2021/06/10 07:56:42;;;;;;;1.42;1.15;;;;;;;;;;5015678;28;20022;-63
2021/06/10 07:59:10;;;;;;;2.47;1.10;;;;;;;;;;5016932;28;20546;-63
2021/06/10 08:01:36;;;;;;;2.45;1.10;;;;;;;;;;5012614;28;20030;-63
2021/06/10 08:04:02;;;;;;;2.15;0.90;;;;;;;;;;5013150;28;20497;-63
2021/06/10 08:06:28;;;;;;;4.20;1.58;;;;;;;;;;5016526;28;20025;-63
2021/06/10 08:08:54;;;;;;;8.75;1.88;;;;;;;;;;5014097;28;20103;-63
2021/06/10 08:11:20;;;;;;;5.18;2.00;;;;;;;;;;5014646;28;20484;-63
2021/06/10 08:13:46;;;;;;;7.10;2.33;;;;;;;;;;5014213;28;20047;-63
2021/06/10 08:16:13;;;;;;;7.00;2.35;;;;;;;;;;5015189;28;20476;-62
2021/06/10 08:18:39;;;;;;;7.35;3.72;;;;;;;;;;5015334;28;20531;-63
2021/06/10 08:21:05;;;;;;;8.95;3.05;;;;;;;;;;5014304;28;20400;-63
2021/06/10 08:23:31;;;;;;;4.88;2.38;;;;;;;;;;5015326;28;20040;-63
2021/06/10 08:26:00;;;;;;;9.50;3.15;;;;;;;;;;5016415;28;20029;-63
2021/06/10 08:28:27;;;;;;;6.10;2.17;;;;;;;;;;5016848;28;20538;-62
2021/06/10 08:30:53;;;;;;;6.95;2.72;;;;;;;;;;5014784;28;20025;-62
2021/06/10 08:33:19;;;;;;;6.78;2.22;;;;;;;;;;5015671;28;20042;-63
2021/06/10 08:35:45;;;;;;;5.57;2.30;;;;;;;;;;5017583;28;20480;-63
2021/06/10 08:38:11;;;;;;;9.18;2.78;;;;;;;;;;5014662;28;20037;-62
2021/06/10 08:40:38;;;;;;;6.75;2.42;;;;;;;;;;5014889;28;20440;-61
2021/06/10 08:43:05;;;;;;;10.15;2.33;;;;;;;;;;5015767;28;20048;-62
2021/06/10 08:45:32;;;;;;;7.35;2.28;;;;;;;;;;5014725;28;20087;-63
2021/06/10 08:47:58;;;;;;;7.63;2.70;;;;;;;;;;5015547;28;20033;-63
2021/06/10 08:50:27;;;;;;;13.73;3.33;;;;;;;;;;5015445;28;20108;-63
2021/06/10 08:52:58;;;;;;;8.77;2.58;;;;;;;;;;5012049;28;20030;-63
2021/06/10 08:55:25;;;;;;;7.65;2.63;;;;;;;;;;5014529;28;20450;-63
2021/06/10 08:57:51;;;;;;;12.73;2.65;;;;;;;;;;5014802;28;20037;-63
2021/06/10 09:00:19;;;;;;;9.43;2.63;;;;;;;;;;5013673;28;20033;-63
2021/06/10 09:03:12;;;;;;;7.65;2.17;;;;;;;;;;5017386;28;20036;-63
2021/06/10 09:05:38;;;;;;;6.97;2.22;;;;;;;;;;5012158;28;20045;-63
2021/06/10 09:08:06;;;;;;;4.88;2.13;;;;;;;;;;5014796;28;20046;-63
2021/06/10 09:10:36;;;;;;;5.22;2.22;;;;;;;;;;5013820;28;20029;-62
2021/06/10 09:13:03;;;;;;;6.25;2.25;;;;;;;;;;5015824;28;20029;-63
2021/06/10 09:15:31;;;;;;;6.90;2.00;;;;;;;;;;5013371;28;20029;-62
2021/06/10 09:18:01;;;;;;;7.00;2.45;;;;;;;;;;5016088;28;20029;-63
2021/06/10 09:20:29;;;;;;;6.57;2.08;;;;;;;;;;5015463;28;20112;-63
2021/06/10 09:23:13;;;;;;;6.60;2.97;;;;;;;;;;5015378;28;20140;-63
2021/06/10 09:25:39;;;;;;;5.63;2.27;;;;;;;;;;5015889;28;20294;-63
2021/06/10 09:28:06;;;;;;;5.22;1.83;;;;;;;;;;5015509;28;20397;-63
2021/06/10 09:30:47;;;;;;;7.82;2.03;;;;;;;;;;5015675;28;20041;-64
2021/06/10 09:33:14;;;;;;;7.28;1.90;;;;;;;;;;5017117;28;20417;-63
2021/06/10 09:35:41;;;;;;;13.18;2.50;;;;;;;;;;5013399;28;20029;-63
2021/06/10 09:38:09;;;;;;;6.82;2.22;;;;;;;;;;5016075;28;20151;-64
2021/06/10 09:40:36;;;;;;;5.68;1.90;;;;;;;;;;5015343;28;20488;-63
2021/06/10 09:43:03;;;;;;;4.45;2.65;;;;;;;;;;5014903;28;20087;-63
2021/06/10 09:45:30;;;;;;;8.15;1.92;;;;;;;;;;5014209;28;20033;-63
2021/06/10 09:47:59;;;;;;;6.82;1.92;;;;;;;;;;5014303;28;20052;-64
2021/06/10 09:50:46;;;;;;;7.00;1.80;;;;;;;;;;5015343;28;20496;-63
2021/06/10 09:53:32;;;;;;;3.80;1.73;;;;;;;;;;5013908;28;20361;-63
2021/06/10 09:56:05;;;;;;;8.10;2.30;;;;;;;;;;5012444;28;20508;-63
2021/06/10 09:58:42;;;;;;;6.15;3.58;;;;;;;;;;5013089;28;20420;-63
2021/06/10 10:01:19;;;;;;;7.50;1.88;;;;;;;;;;5013855;28;20030;-63
2021/06/10 10:03:49;;;;;;;3.03;1.70;;;;;;;;;;5018572;28;20037;-63
2021/06/10 10:06:27;;;;;;;4.55;1.67;;;;;;;;;;5016809;28;20508;-64
2021/06/10 10:08:56;;;;;;;3.35;1.50;;;;;;;;;;5016397;28;20049;-63
2021/06/10 10:11:23;;;;;;;1.65;1.38;;;;;;;;;;5017160;28;20392;-63
2021/06/10 10:13:50;;;;;;;5.00;1.52;;;;;;;;;;5016226;28;20029;-64
2021/06/10 10:16:20;;;;;;;2.85;1.58;;;;;;;;;;5018886;28;20095;-63
2021/06/10 10:18:47;;;;;;;4.85;1.33;;;;;;;;;;5019267;28;20048;-63
2021/06/10 10:21:13;;;;;;;6.40;1.52;;;;;;;;;;5017272;28;20022;-63
2021/06/10 10:23:39;;;;;;;3.83;1.65;;;;;;;;;;5017725;28;20495;-63
2021/06/10 10:26:07;;;;;;;3.60;1.52;;;;;;;;;;5018287;28;20113;-63
2021/06/10 10:28:34;;;;;;;3.03;1.40;;;;;;;;;;5017431;28;20030;-62
2021/06/10 10:31:01;;;;;;;3.88;1.73;;;;;;;;;;5018328;28;20034;-63
2021/06/10 10:33:27;;;;;;;1.50;1.05;;;;;;;;;;5017942;28;20637;-63
2021/06/10 10:36:01;;;;;;;3.83;1.92;;;;;;;;;;5017388;28;20084;-63
2021/06/10 10:38:40;;;;;;;2.83;1.50;;;;;;;;;;5016158;28;20581;-63
2021/06/10 10:41:11;;;;;;;5.55;1.40;;;;;;;;;;5016757;28;20145;-63
2021/06/10 10:43:38;;;;;;;3.38;1.40;;;;;;;;;;5017696;28;20033;-63
2021/06/10 10:46:17;;;;;;;2.15;1.10;;;;;;;;;;5016852;28;20037;-63
2021/06/10 10:48:44;;;;;;;3.20;1.25;;;;;;;;;;5018705;28;20029;-63
2021/06/10 10:51:22;;;;;;;2.90;1.42;;;;;;;;;;5018110;28;20125;-62
2021/06/10 10:53:53;;;;;;;1.83;1.10;;;;;;;;;;5017054;28;20034;-63
2021/06/10 10:56:20;;;;;;;4.70;1.52;;;;;;;;;;5018137;28;20041;-62
2021/06/10 10:59:05;;;;;;;3.90;1.98;;;;;;;;;;5016171;28;20449;-62
2021/06/10 11:01:31;;;;;;;1.45;1.08;;;;;;;;;;5015652;28;20033;-62
2021/06/10 11:03:57;;;;;;;1.65;1.17;;;;;;;;;;5015500;28;20036;-63
2021/06/10 11:06:28;;;;;;;5.25;1.58;;;;;;;;;;5017937;28;20034;-62
2021/06/10 11:08:58;;;;;;;3.33;1.23;;;;;;;;;;5016302;28;20138;-62
2021/06/10 11:11:44;;;;;;;2.95;1.00;;;;;;;;;;5018422;28;20595;-63
2021/06/10 11:14:30;;;;;;;3.45;1.23;;;;;;;;;;5014586;28;20040;-63
2021/06/10 11:17:23;;;;;;;7.47;1.60;;;;;;;;;;5017379;28;20493;-63
2021/06/10 11:19:50;;;;;;;2.42;1.20;;;;;;;;;;5015060;28;20107;-62
2021/06/10 11:22:35;;;;;;;2.67;1.15;;;;;;;;;;5017378;28;20076;-63
2021/06/10 11:25:02;;;;;;;2.08;1.33;;;;;;;;;;5016375;28;20172;-62
2021/06/10 11:27:48;;;;;;;6.32;1.30;;;;;;;;;;5014858;28;20439;-62
2021/06/10 11:30:21;;;;;;;2.08;1.30;;;;;;;;;;5015959;28;20042;-62
2021/06/10 11:33:06;;;;;;;1.50;1.38;;;;;;;;;;5016263;28;20057;-62
2021/06/10 11:35:32;;;;;;;;;;;;;;;;;;5018555;28;20396;-64
2021/06/10 11:38:00;;;;;;;1.85;1.00;;;;;;;;;;5015788;28;19928;-63
2021/06/10 11:40:27;;;;;;;1.38;0.93;;;;;;;;;;5016726;28;20083;-63
2021/06/10 11:42:53;;;;;;;3.90;1.13;;;;;;;;;;5016923;28;20136;-63
2021/06/10 11:45:20;;;;;;;1.38;1.27;;;;;;;;;;5016390;28;20029;-63
2021/06/10 11:47:46;;;;;;;1.90;1.10;;;;;;;;;;5016263;28;20045;-63
2021/06/10 11:50:27;;;;;;;1.42;1.08;;;;;;;;;;5015940;28;20061;-63
2021/06/10 11:53:01;;;;;;;2.47;1.35;;;;;;;;;;5016639;28;20033;-63
2021/06/10 11:55:29;;;;;;;1.93;1.20;;;;;;;;;;5016276;28;20499;-63
2021/06/10 11:57:56;;;;;;;2.58;1.05;;;;;;;;;;5017304;28;20290;-63
2021/06/10 12:00:30;;;;;;;1.35;1.00;;;;;;;;;;5015209;28;20480;-63
2021/06/10 12:03:00;;;;;;;1.73;0.90;;;;;;;;;;5016936;28;20088;-63
2021/06/10 12:05:28;;;;;;;2.80;1.23;;;;;;;;;;5016927;28;20088;-63
2021/06/10 12:08:10;;;;;;;1.92;1.00;;;;;;;;;;5016994;28;20487;-62
2021/06/10 12:10:37;;;;;;;2.72;1.10;;;;;;;;;;5017012;28;20026;-62
2021/06/10 12:13:03;;;;;;;2.40;1.08;;;;;;;;;;5014719;28;20038;-62
2021/06/10 12:15:33;;;;;;;1.92;1.17;;;;;;;;;;5015796;28;20031;-63
2021/06/10 12:18:10;;;;;;;2.83;1.00;;;;;;;;;;5017553;28;20033;-63
2021/06/10 12:20:37;;;;;;;1.50;1.13;;;;;;;;;;5014766;28;20045;-63
2021/06/10 12:23:04;;;;;;;1.23;0.85;;;;;;;;;;5015668;28;20124;-63
2021/06/10 12:25:32;;;;;;;1.02;0.95;;;;;;;;;;5014442;28;20897;-63
2021/06/10 12:27:59;;;;;;;1.98;1.08;;;;;;;;;;5015421;28;20060;-62
2021/06/10 12:30:26;;;;;;;1.80;1.50;;;;;;;;;;5015081;28;20065;-62
2021/06/10 12:32:53;;;;;;;1.35;1.13;;;;;;;;;;5019226;28;20456;-62
2021/06/10 12:35:21;;;;;;;1.67;1.00;;;;;;;;;;5016844;28;20041;-62
2021/06/10 12:37:51;;;;;;;2.83;1.20;;;;;;;;;;5015388;28;20032;-63
2021/06/10 12:40:17;;;;;;;2.33;0.98;;;;;;;;;;5015041;28;20033;-63
2021/06/10 12:43:03;;;;;;;2.72;1.10;;;;;;;;;;5015433;28;20088;-63
2021/06/10 12:45:29;;;;;;;1.20;1.10;;;;;;;;;;5011752;28;20057;-63
2021/06/10 12:47:55;;;;;;;1.52;1.02;;;;;;;;;;5015575;28;20032;-63
2021/06/10 12:50:21;;;;;;;4.32;1.40;;;;;;;;;;5014824;28;20022;-63
2021/06/10 12:52:47;;;;;;;1.65;1.10;;;;;;;;;;5016924;28;20037;-63
2021/06/10 12:55:16;;;;;;;1.38;1.05;;;;;;;;;;5014386;28;20107;-63
2021/06/10 12:57:42;;;;;;;2.92;1.45;;;;;;;;;;5016880;28;20017;-64
2021/06/10 13:00:11;;;;;;;3.38;1.00;;;;;;;;;;5014121;28;20040;-63
2021/06/10 13:02:38;;;;;;;3.20;1.10;;;;;;;;;;5012759;28;20071;-63
2021/06/10 13:05:11;;;;;;;4.75;1.20;;;;;;;;;;5016243;28;20527;-63
2021/06/10 13:07:41;;;;;;;7.45;1.58;;;;;;;;;;5018539;28;20195;-64
2021/06/10 13:10:09;;;;;;;6.68;1.90;;;;;;;;;;5015073;28;20076;-63
2021/06/10 13:12:42;;;;;;;3.00;1.30;;;;;;;;;;5015914;28;20060;-63
2021/06/10 13:15:22;;;;;;;5.78;1.50;;;;;;;;;;5014662;28;20021;-63
2021/06/10 13:17:48;;;;;;;4.57;1.70;;;;;;;;;;5016250;28;20094;-62
2021/06/10 13:20:14;;;;;;;5.18;1.50;;;;;;;;;;5014647;28;20079;-62
2021/06/10 13:22:40;;;;;;;4.25;1.50;;;;;;;;;;5016788;28;20034;-62
2021/06/10 13:25:08;;;;;;;4.38;1.90;;;;;;;;;;5013010;28;20559;-63
2021/06/10 13:27:34;;;;;;;4.18;1.38;;;;;;;;;;5015109;28;20047;-63
2021/06/10 13:30:02;;;;;;;2.05;1.23;;;;;;;;;;5012889;28;20022;-63
2021/06/10 13:32:34;;;;;;;2.40;1.13;;;;;;;;;;5015687;28;20037;-63
2021/06/10 13:35:08;;;;;;;4.30;1.60;;;;;;;;;;5021838;28;20045;-63
2021/06/10 13:37:34;;;;;;;1.92;1.58;;;;;;;;;;5017430;28;20033;-63
2021/06/10 13:40:00;;;;;;;4.30;1.58;;;;;;;;;;5018035;28;20068;-63
2021/06/10 13:42:29;;;;;;;2.47;1.23;;;;;;;;;;5020266;28;20037;-63
2021/06/10 13:44:55;;;;;;;1.88;1.40;;;;;;;;;;5018394;28;20033;-63
2021/06/10 13:47:22;;;;;;;4.25;1.40;;;;;;;;;;5017301;28;20149;-63
2021/06/10 13:49:48;;;;;;;3.38;1.92;;;;;;;;;;5017497;28;20041;-63
2021/06/10 13:52:14;;;;;;;2.38;1.45;;;;;;;;;;5018144;28;20029;-63
2021/06/10 13:54:40;;;;;;;3.63;1.42;;;;;;;;;;5019103;28;20072;-63
2021/06/10 13:57:07;;;;;;;2.58;1.48;;;;;;;;;;5016969;28;20029;-64
2021/06/10 13:59:35;;;;;;;1.40;1.30;;;;;;;;;;5018098;28;20168;-64
2021/06/10 14:02:01;;;;;;;1.75;1.50;;;;;;;;;;5020317;28;20030;-63
2021/06/10 14:04:27;;;;;;;4.25;1.63;;;;;;;;;;5018285;28;20542;-63
2021/06/10 14:06:54;;;;;;;8.05;1.60;;;;;;;;;;5017551;28;20103;-64
2021/06/10 14:09:20;;;;;;;5.55;1.20;;;;;;;;;;5017207;28;20041;-63
2021/06/10 14:11:46;;;;;;;2.65;1.55;;;;;;;;;;5018817;28;20047;-64
2021/06/10 14:14:12;;;;;;;2.00;1.23;;;;;;;;;;5016503;28;20030;-63
2021/06/10 14:16:38;;;;;;;2.30;1.20;;;;;;;;;;5018198;28;20022;-64
2021/06/10 14:19:08;;;;;;;1.40;1.27;;;;;;;;;;5017135;28;20064;-64
2021/06/10 14:21:34;;;;;;;2.97;1.25;;;;;;;;;;5017092;28;20040;-64
2021/06/10 14:24:00;;;;;;;2.33;1.60;;;;;;;;;;5016575;28;20145;-63
2021/06/10 14:26:27;;;;;;;1.70;1.45;;;;;;;;;;5018928;28;20087;-64
2021/06/10 14:29:02;;;;;;;2.15;1.35;;;;;;;;;;5016982;28;20196;-62
2021/06/10 14:34:14;;;;;;;1.38;1.10;;;;;;;;;;5019151;28;20044;-63
2021/06/10 14:36:40;;;;;;;1.95;1.35;;;;;;;;;;5019364;28;20415;-62
2021/06/10 14:39:06;;;;;;;2.47;1.30;;;;;;;;;;5016980;28;20481;-62
2021/06/10 14:41:33;;;;;;;1.65;1.00;;;;;;;;;;5018579;28;20036;-63
2021/06/10 14:43:59;;;;;;;1.65;1.10;;;;;;;;;;5017806;28;20030;-63
2021/06/10 14:46:25;;;;;;;1.42;1.05;;;;;;;;;;5018044;28;20453;-63
2021/06/10 14:48:51;;;;;;;1.52;1.00;;;;;;;;;;5015520;28;20116;-62
2021/06/10 14:51:17;;;;;;;1.00;0.90;;;;;;;;;;5018004;28;20022;-63
2021/06/10 14:53:43;;;;;;;1.85;1.00;;;;;;;;;;5017087;28;20108;-64